Αναφορές METAR Αεροδρομίων

 

LGTS - THESSALONIKI - GREECE
Ενημερώθηκε: 20/02/2020 00:20
Αραιές Νεφώσεις
Αραιές Νεφώσεις
 Ανεμος από Α
Ανεμος: Α 7 km/h
Θερμοκρασία: 9°C
Δείκτη Ψύχρας: 8°C
Σημείο Δρόσου: 7°C
Υγρασία: 87%
Βαρόμετρο: 1014 hPa
Clouds: Αραιές Νεφώσεις
Visibility: 10 km
Cloud details: Αραιές Νεφώσεις 610 m
2020/02/19 22:20 LGTS 192220Z 10004KT 9999 FEW020 09/07 Q1014 NOSIG
LGLR - LARTISA - GREECE
Ενημερώθηκε: 19/02/2020 23:50
Μερικώς νεφελώδης
Μερικώς νεφελώδης
 Ανεμος από calm
Ανεμος: Απνοια
Θερμοκρασία: 8°C
Σημείο Δρόσου: 6°C
Υγρασία: 87%
Βαρόμετρο: 1015 hPa
Clouds: Μερικώς νεφελώδης
Visibility: 10 km
Cloud details: Αραιές Νεφώσεις 914 m
Μερικώς νεφελώδης 2743 m
2020/02/19 21:50 LGLR 192150Z 00000KT 9999 FEW030 SCT090 08/06 Q1015 RMK BKN180 BLU
 
LGKZ - KOZANI - GREECE
Ενημερώθηκε: 20/02/2020 00:20

 Ανεμος από varies
Ανεμος: varies 4 km/h
Θερμοκρασία: 6°C
Σημείο Δρόσου: 2°C
Υγρασία: 76%
Βαρόμετρο: 1014 hPa
2020/02/19 22:20 LGKZ 192220Z AUTO VRB02KT //// // ////// 06/02 Q1014 RE//
LGKV - KAVALA - GREECE
Ενημερώθηκε: 19/02/2020 23:50
Αίθριος
Αίθριος
 Ανεμος από calm
Ανεμος: Απνοια
Θερμοκρασία: 6°C
Σημείο Δρόσου: 3°C
Υγρασία: 81%
Βαρόμετρο: 1015 hPa
Περίληψη: Αίθριος
Visibility: greater than 10 km
2020/02/19 21:50 LGKV 192150Z 00000KT CAVOK 06/03 Q1015
 
LGIO - IOANNINA - GREECE
Ενημερώθηκε: 20/02/2020 00:20

 Ανεμος από varies
Ανεμος: varies 2 km/h
Θερμοκρασία: 8°C
Σημείο Δρόσου: 7°C
Υγρασία: 93%
Βαρόμετρο: 1015 hPa
2020/02/19 22:20 LGIO 192220Z AUTO VRB01KT //// // ////// 08/07 Q1015 RE//
LGBL - BOLOS - GREECE
Ενημερώθηκε: 19/02/2020 23:50
Σχεδόν νεφελώδης
Σχεδόν νεφελώδης
 Ανεμος από ΔΝΔ
Ανεμος: ΔΝΔ 4 km/h
Θερμοκρασία: 6°C
Σημείο Δρόσου: 5°C
Υγρασία: 93%
Βαρόμετρο: 1015 hPa
Clouds: Σχεδόν νεφελώδης
Visibility: 10 km
Cloud details: Μερικώς νεφελώδης 914 m
Σχεδόν νεφελώδης 2438 m
2020/02/19 21:50 LGBL 192150Z 25002KT 9999 SCT030 BKN080 06/05 Q1015
 
LGMT - MITILINI - GREECE
Ενημερώθηκε: 19/02/2020 22:20
NOT Current
Αραιές Νεφώσεις
Αραιές Νεφώσεις
 Ανεμος από varies
Ανεμος: varies 6 km/h
Θερμοκρασία: 12°C
Σημείο Δρόσου: 7°C
Υγρασία: 72%
Βαρόμετρο: 1017 hPa
Clouds: Αραιές Νεφώσεις
Visibility: 10 km
Cloud details: Αραιές Νεφώσεις 762 m
2020/02/19 20:20 LGMT 192020Z VRB03KT 9999 FEW025 12/07 Q1017
LGAV - ATHENS - GREECE
Ενημερώθηκε: 20/02/2020 00:20
Αραιές Νεφώσεις
Αραιές Νεφώσεις
 Ανεμος από Δ
Ανεμος: Δ 2 km/h
Θερμοκρασία: 8°C
Σημείο Δρόσου: 7°C
Υγρασία: 93%
Βαρόμετρο: 1015 hPa
Clouds: Αραιές Νεφώσεις
Visibility: 10 km
Cloud details: Αραιές Νεφώσεις 1067 m
2020/02/19 22:20 LGAV 192220Z 26001KT 9999 FEW035 08/07 Q1015 NOSIG
 
LGRP - RODOS - GREECE
Ενημερώθηκε: 20/02/2020 00:20
Αίθριος
Αίθριος
 Ανεμος από varies
Ανεμος: varies 6 km/h
Θερμοκρασία: 13°C
Σημείο Δρόσου: 9°C
Υγρασία: 77%
Βαρόμετρο: 1016 hPa
Περίληψη: Αίθριος
Visibility: greater than 10 km
2020/02/19 22:20 LGRP 192220Z VRB03KT CAVOK 13/09 Q1016 NOSIG
LGIR - HRAKLIO/KRITI - GREECE
Ενημερώθηκε: 20/02/2020 00:20
Μερικώς νεφελώδης
Μερικώς νεφελώδης
 Ανεμος από ΝΝΑ
Ανεμος: ΝΝΑ 13 km/h
Θερμοκρασία: 12°C
Σημείο Δρόσου: 10°C
Υγρασία: 88%
Βαρόμετρο: 1017 hPa
Clouds: Μερικώς νεφελώδης
Visibility: 10 km
Cloud details: Αραιές Νεφώσεις 610 m
Μερικώς νεφελώδης 914 m
2020/02/19 22:20 LGIR 192220Z 16007KT 9999 FEW020 SCT030 12/10 Q1017 NOSIG
 
LGMK - MIKONOS - GREECE
Ενημερώθηκε: 19/02/2020 19:50
NOT Current
Αραιές Νεφώσεις
Αραιές Νεφώσεις
 Ανεμος από calm
Ανεμος: Απνοια
Θερμοκρασία: 14°C
Σημείο Δρόσου: 9°C
Υγρασία: 72%
Βαρόμετρο: 1016 hPa
Clouds: Αραιές Νεφώσεις
Visibility: 10 km
Cloud details: Αραιές Νεφώσεις 549 m
2020/02/19 17:50 LGMK 191750Z 00000KT 9999 FEW018 14/09 Q1016
LGKR - KERKIRA - GREECE
Ενημερώθηκε: 20/02/2020 00:20
Σχεδόν νεφελώδης
Σχεδόν νεφελώδης
 Ανεμος από calm
Ανεμος: Απνοια
Θερμοκρασία: 11°C
Σημείο Δρόσου: 9°C
Υγρασία: 88%
Βαρόμετρο: 1015 hPa
Clouds: Σχεδόν νεφελώδης
Visibility: 10 km
Cloud details: Μερικώς νεφελώδης 457 m
Σχεδόν νεφελώδης 2438 m
2020/02/19 22:20 LGKR 192220Z 00000KT 9999 SCT015 BKN080 11/09 Q1015 NOSIG